createdAt,value
2022-11-06T00:00:28.080Z,7.81
2022-11-06T00:02:59.814Z,7.86
2022-11-06T00:05:41.948Z,7.85
2022-11-06T00:08:11.847Z,7.81
2022-11-06T00:10:41.618Z,7.85
2022-11-06T00:13:13.678Z,7.86
2022-11-06T00:15:43.120Z,7.88
2022-11-06T00:18:12.979Z,7.90
2022-11-06T00:20:42.583Z,7.93
2022-11-06T00:23:12.074Z,7.97
2022-11-06T00:25:43.705Z,7.97
2022-11-06T00:28:15.965Z,7.96
2022-11-06T00:30:45.512Z,7.95
2022-11-06T00:33:15.012Z,7.94
2022-11-06T00:35:44.519Z,7.95
2022-11-06T00:38:15.335Z,7.96
2022-11-06T00:40:45.040Z,7.95
2022-11-06T00:43:17.032Z,7.95
2022-11-06T00:45:46.502Z,7.94
2022-11-06T00:48:16.122Z,7.93
2022-11-06T00:50:45.775Z,7.91
2022-11-06T00:53:15.248Z,7.89
2022-11-06T00:55:44.781Z,7.89
2022-11-06T00:58:17.012Z,7.88
2022-11-06T01:00:46.413Z,7.88
2022-11-06T01:03:15.946Z,7.88
2022-11-06T01:05:45.465Z,7.86
2022-11-06T01:08:15.332Z,7.86
2022-11-06T01:10:44.944Z,7.85
2022-11-06T01:13:17.259Z,7.88
2022-11-06T01:15:46.756Z,7.86
2022-11-06T01:18:16.246Z,7.87
2022-11-06T01:20:45.814Z,7.89
2022-11-06T01:23:15.278Z,7.89
2022-11-06T01:25:44.757Z,7.89
2022-11-06T01:28:20.981Z,7.87
2022-11-06T01:30:50.420Z,7.86
2022-11-06T01:33:19.983Z,7.86
2022-11-06T01:35:50.216Z,7.83
2022-11-06T01:38:20.160Z,7.84
2022-11-06T01:40:50.748Z,7.87
2022-11-06T01:43:25.316Z,7.89
2022-11-06T01:45:55.882Z,7.87
2022-11-06T01:48:27.311Z,7.86
2022-11-06T01:50:59.475Z,7.90
2022-11-06T01:53:29.368Z,7.91
2022-11-06T01:56:01.957Z,7.91
2022-11-06T01:58:35.687Z,7.92
2022-11-06T02:01:05.980Z,7.90
2022-11-06T02:03:35.485Z,7.87
2022-11-06T02:06:05.390Z,7.89
2022-11-06T02:08:34.981Z,7.86
2022-11-06T02:11:04.597Z,7.88
2022-11-06T02:13:43.378Z,7.88
2022-11-06T02:16:17.485Z,7.91
2022-11-06T02:18:59.115Z,7.88
2022-11-06T02:21:39.636Z,7.90
2022-11-06T02:24:22.430Z,7.92
2022-11-06T02:27:13.114Z,7.93
2022-11-06T02:29:50.080Z,7.95
2022-11-06T02:32:23.314Z,7.91
2022-11-06T02:34:54.733Z,7.95
2022-11-06T02:37:29.155Z,7.95
2022-11-06T02:40:00.608Z,7.94
2022-11-06T02:42:33.476Z,7.95
2022-11-06T02:45:03.592Z,7.92
2022-11-06T02:47:35.527Z,7.92
2022-11-06T02:50:08.294Z,7.97
2022-11-06T02:52:40.924Z,7.93
2022-11-06T02:55:13.004Z,7.93
2022-11-06T02:57:47.689Z,7.95
2022-11-06T03:00:19.068Z,7.94
2022-11-06T03:02:52.646Z,7.94
2022-11-06T03:05:26.285Z,7.94
2022-11-06T03:07:59.708Z,7.92
2022-11-06T03:10:32.611Z,7.96
2022-11-06T03:13:08.765Z,7.97
2022-11-06T03:15:42.386Z,7.97
2022-11-06T03:18:15.094Z,8.01
2022-11-06T03:20:46.360Z,7.99
2022-11-06T03:23:19.128Z,8.00
2022-11-06T03:25:51.832Z,8.04
2022-11-06T03:28:29.116Z,8.03
2022-11-06T03:31:01.636Z,7.99
2022-11-06T03:33:35.053Z,7.97
2022-11-06T03:36:07.315Z,7.99
2022-11-06T03:38:42.155Z,7.97
2022-11-06T03:41:15.705Z,7.99
2022-11-06T03:43:50.595Z,7.99
2022-11-06T03:46:25.047Z,7.96
2022-11-06T03:48:57.638Z,7.98
2022-11-06T03:51:29.769Z,7.97
2022-11-06T03:54:01.323Z,7.97
2022-11-06T03:56:34.108Z,7.97
2022-11-06T03:59:07.615Z,7.99
2022-11-06T04:01:40.186Z,8.00
2022-11-06T04:04:14.653Z,7.97
2022-11-06T04:06:47.135Z,7.96
2022-11-06T04:09:30.460Z,7.94
2022-11-06T04:12:13.195Z,7.97
2022-11-06T04:14:48.027Z,7.96
2022-11-06T04:17:18.164Z,7.95
2022-11-06T04:19:50.774Z,7.96
2022-11-06T04:22:30.268Z,7.98
2022-11-06T04:25:19.825Z,7.93
2022-11-06T04:28:01.006Z,7.93
2022-11-06T04:30:34.811Z,7.92
2022-11-06T04:33:09.255Z,7.92
2022-11-06T04:35:48.530Z,7.91
2022-11-06T04:38:23.155Z,7.91
2022-11-06T04:40:56.952Z,7.92
2022-11-06T04:43:31.073Z,7.91
2022-11-06T04:46:04.156Z,7.94
2022-11-06T04:48:33.946Z,7.90
2022-11-06T04:51:06.301Z,7.92
2022-11-06T04:53:36.185Z,7.87
2022-11-06T04:56:12.213Z,7.86
2022-11-06T04:58:42.122Z,7.87
2022-11-06T05:01:14.188Z,7.87
2022-11-06T05:03:43.708Z,7.86
2022-11-06T05:06:13.108Z,7.86
2022-11-06T05:08:42.522Z,7.83
2022-11-06T05:11:11.977Z,7.81
2022-11-06T05:13:41.557Z,7.84
2022-11-06T05:16:13.695Z,7.81
2022-11-06T05:18:43.048Z,7.80
2022-11-06T05:21:25.240Z,7.79
2022-11-06T05:23:54.619Z,7.79
2022-11-06T05:26:23.995Z,7.76
2022-11-06T05:28:53.438Z,7.77
2022-11-06T05:31:25.749Z,7.76
2022-11-06T05:33:55.149Z,7.77
2022-11-06T05:36:24.607Z,7.76
2022-11-06T05:38:54.003Z,7.74
2022-11-06T05:41:23.690Z,7.77
2022-11-06T05:43:53.264Z,7.75
2022-11-06T05:46:47.198Z,7.72
2022-11-06T05:49:14.671Z,7.68
2022-11-06T05:51:44.063Z,7.67
2022-11-06T05:54:13.478Z,7.64
2022-11-06T05:56:42.856Z,7.61
2022-11-06T05:59:13.128Z,7.61
2022-11-06T06:01:45.424Z,7.57
2022-11-06T06:04:14.979Z,7.45
2022-11-06T06:06:44.530Z,7.37
2022-11-06T06:09:13.903Z,7.32
2022-11-06T06:11:43.303Z,7.33
2022-11-06T06:14:12.737Z,7.19
2022-11-06T06:16:44.737Z,7.09
2022-11-06T06:19:14.343Z,7.03
2022-11-06T06:21:43.720Z,7.03
2022-11-06T06:24:13.165Z,6.97
2022-11-06T06:26:42.800Z,6.86
2022-11-06T06:29:12.204Z,6.82
2022-11-06T06:31:41.613Z,6.83
2022-11-06T06:34:13.598Z,6.83
2022-11-06T06:36:42.992Z,6.84
2022-11-06T06:39:12.465Z,6.87
2022-11-06T06:41:41.827Z,6.88
2022-11-06T06:44:11.199Z,6.91
2022-11-06T06:46:40.608Z,6.92
2022-11-06T06:49:13.029Z,6.95
2022-11-06T06:51:42.472Z,6.97
2022-11-06T06:54:12.056Z,6.95
2022-11-06T06:56:41.457Z,6.96
2022-11-06T06:59:11.020Z,6.99
2022-11-06T07:01:41.193Z,7.01
2022-11-06T07:04:13.847Z,7.05
2022-11-06T07:06:43.241Z,7.09
2022-11-06T07:09:12.647Z,7.13
2022-11-06T07:11:42.207Z,7.15
2022-11-06T07:14:12.835Z,7.19
2022-11-06T07:16:42.207Z,7.25
2022-11-06T07:19:14.436Z,7.27
2022-11-06T07:21:43.879Z,7.24
2022-11-06T07:24:13.502Z,7.19
2022-11-06T07:26:42.887Z,7.19
2022-11-06T07:29:12.346Z,7.19
2022-11-06T07:31:41.749Z,7.22
2022-11-06T07:34:14.880Z,7.27
2022-11-06T07:36:44.282Z,7.29
2022-11-06T07:39:13.659Z,7.33
2022-11-06T07:41:43.047Z,7.36
2022-11-06T07:44:12.495Z,7.37
2022-11-06T07:46:41.881Z,7.41
2022-11-06T07:49:16.135Z,7.50
2022-11-06T07:51:45.538Z,7.51
2022-11-06T07:54:15.125Z,7.59
2022-11-06T07:56:44.580Z,7.61
2022-11-06T07:59:13.964Z,7.61
2022-11-06T08:01:43.521Z,7.65
2022-11-06T08:04:15.687Z,7.65
2022-11-06T08:06:45.087Z,7.56
2022-11-06T08:09:14.558Z,7.47
2022-11-06T08:11:43.952Z,7.43
2022-11-06T08:14:14.012Z,7.46
2022-11-06T08:16:43.401Z,7.50
2022-11-06T08:19:15.417Z,7.45
2022-11-06T08:21:44.807Z,7.52
2022-11-06T08:24:19.042Z,7.56
2022-11-06T08:26:51.258Z,7.65
2022-11-06T08:29:20.791Z,7.72
2022-11-06T08:31:50.260Z,7.75
2022-11-06T08:34:22.203Z,7.77
2022-11-06T08:36:52.433Z,7.82
2022-11-06T08:39:21.836Z,7.84
2022-11-06T08:41:51.269Z,7.80
2022-11-06T08:44:20.643Z,7.75
2022-11-06T08:46:52.244Z,7.70
2022-11-06T08:49:24.435Z,7.73
2022-11-06T08:51:54.604Z,7.78
2022-11-06T08:54:23.981Z,7.88
2022-11-06T08:56:53.437Z,7.94
2022-11-06T08:59:22.803Z,8.00
2022-11-06T09:01:52.340Z,8.11
2022-11-06T09:04:24.553Z,8.17
2022-11-06T09:06:53.955Z,8.27
2022-11-06T09:09:23.483Z,8.34
2022-11-06T09:11:52.861Z,8.40
2022-11-06T09:14:22.289Z,8.47
2022-11-06T09:16:51.676Z,8.53
2022-11-06T09:19:24.412Z,8.46
2022-11-06T09:21:54.973Z,8.56
2022-11-06T09:24:49.669Z,8.63
2022-11-06T09:27:14.409Z,8.59
2022-11-06T09:29:44.569Z,8.58
2022-11-06T09:32:14.071Z,8.64
2022-11-06T09:34:46.115Z,8.61
2022-11-06T09:37:15.593Z,8.68
2022-11-06T09:39:45.494Z,8.63
2022-11-06T09:42:21.760Z,8.63
2022-11-06T09:45:00.427Z,8.70
2022-11-06T09:47:34.959Z,8.66
2022-11-06T09:50:09.868Z,8.72
2022-11-06T09:52:43.187Z,8.82
2022-11-06T09:55:17.513Z,8.81
2022-11-06T09:57:50.100Z,8.87
2022-11-06T10:00:20.423Z,8.87
2022-11-06T10:02:51.638Z,8.98
2022-11-06T10:05:28.038Z,9.15
2022-11-06T10:07:59.457Z,9.13
2022-11-06T10:10:32.087Z,9.18
2022-11-06T10:13:17.309Z,9.24
2022-11-06T10:15:50.120Z,9.24
2022-11-06T10:18:27.594Z,9.38
2022-11-06T10:21:04.188Z,9.42
2022-11-06T10:23:37.440Z,9.46
2022-11-06T10:26:12.137Z,9.42
2022-11-06T10:29:02.508Z,9.55
2022-11-06T10:31:36.738Z,9.68
2022-11-06T10:34:10.373Z,9.63
2022-11-06T10:36:49.687Z,9.77
2022-11-06T10:39:22.313Z,9.80
2022-11-06T10:41:54.832Z,9.73
2022-11-06T10:44:28.219Z,9.78
2022-11-06T10:47:02.237Z,9.93
2022-11-06T10:49:37.564Z,10.18
2022-11-06T10:52:27.138Z,10.32
2022-11-06T10:55:05.491Z,10.14
2022-11-06T10:57:40.050Z,10.13
2022-11-06T11:00:15.301Z,10.31
2022-11-06T11:02:48.785Z,10.26
2022-11-06T11:05:19.950Z,10.21
2022-11-06T11:07:55.061Z,10.17
2022-11-06T11:10:33.261Z,10.25
2022-11-06T11:13:08.497Z,10.31
2022-11-06T11:15:45.608Z,10.53
2022-11-06T11:18:20.159Z,10.68
2022-11-06T11:20:50.643Z,10.86
2022-11-06T11:23:24.990Z,10.93
2022-11-06T11:25:56.207Z,11.09
2022-11-06T11:28:29.976Z,11.29
2022-11-06T11:31:07.191Z,11.19
2022-11-06T11:33:37.085Z,11.28
2022-11-06T11:36:08.030Z,11.19
2022-11-06T11:38:42.940Z,11.37
2022-11-06T11:41:15.216Z,11.59
2022-11-06T11:43:45.507Z,11.60
2022-11-06T11:46:22.230Z,11.63
2022-11-06T11:48:53.279Z,11.66
2022-11-06T11:51:41.111Z,11.86
2022-11-06T11:54:21.402Z,11.98
2022-11-06T11:57:07.894Z,12.03
2022-11-06T11:59:40.452Z,11.99
2022-11-06T12:02:23.635Z,12.14
2022-11-06T12:04:59.056Z,12.06
2022-11-06T12:07:30.750Z,11.98
2022-11-06T12:10:04.535Z,11.78
2022-11-06T12:12:35.283Z,11.85
2022-11-06T12:15:22.312Z,11.86
2022-11-06T12:17:55.765Z,11.73
2022-11-06T12:20:29.213Z,11.66
2022-11-06T12:23:01.259Z,11.70
2022-11-06T12:25:36.112Z,11.68
2022-11-06T12:28:07.843Z,11.69
2022-11-06T12:30:38.107Z,11.65
2022-11-06T12:33:13.711Z,11.67
2022-11-06T12:35:48.992Z,11.59
2022-11-06T12:38:24.567Z,11.57
2022-11-06T12:41:00.247Z,11.64
2022-11-06T12:43:36.313Z,11.63
2022-11-06T12:46:24.555Z,11.50
2022-11-06T12:49:18.916Z,11.55
2022-11-06T12:51:57.639Z,11.59
2022-11-06T12:54:39.345Z,11.55
2022-11-06T12:57:19.699Z,11.64
2022-11-06T12:59:59.896Z,11.64
2022-11-06T13:02:40.812Z,11.63
2022-11-06T13:05:16.587Z,11.60
2022-11-06T13:07:57.921Z,11.60
2022-11-06T13:10:33.847Z,11.59
2022-11-06T13:13:18.195Z,11.55
2022-11-06T13:15:54.016Z,11.60
2022-11-06T13:18:26.782Z,11.64
2022-11-06T13:21:00.392Z,11.69
2022-11-06T13:23:32.256Z,11.77
2022-11-06T13:26:06.312Z,11.79
2022-11-06T13:28:42.555Z,11.80
2022-11-06T13:31:14.179Z,11.75
2022-11-06T13:33:45.656Z,11.78
2022-11-06T13:36:15.479Z,11.81
2022-11-06T13:38:48.756Z,11.91
2022-11-06T13:41:22.266Z,12.59
2022-11-06T13:43:57.250Z,13.24
2022-11-06T13:46:32.312Z,13.24
2022-11-06T13:49:11.360Z,13.23
2022-11-06T13:51:46.268Z,13.16
2022-11-06T13:54:21.184Z,13.04
2022-11-06T13:57:04.628Z,12.85
2022-11-06T13:59:54.692Z,12.67
2022-11-06T14:02:41.337Z,12.23
2022-11-06T14:05:39.573Z,12.05
2022-11-06T14:08:11.267Z,12.01
2022-11-06T14:10:42.188Z,11.88
2022-11-06T14:13:16.485Z,11.88
2022-11-06T14:15:49.167Z,11.78
2022-11-06T14:18:24.935Z,11.69
2022-11-06T14:21:30.724Z,11.71
2022-11-06T14:24:08.656Z,11.61
2022-11-06T14:26:43.315Z,11.60
2022-11-06T14:29:45.474Z,11.44
2022-11-06T14:32:41.071Z,11.53
2022-11-06T14:35:50.251Z,11.42
2022-11-06T14:38:34.092Z,11.40
2022-11-06T14:41:03.660Z,11.30
2022-11-06T14:43:35.557Z,11.19
2022-11-06T14:46:07.634Z,11.17
2022-11-06T14:48:41.731Z,11.12
2022-11-06T14:51:14.027Z,11.04
2022-11-06T14:53:51.315Z,10.98
2022-11-06T14:56:24.551Z,10.82
2022-11-06T14:58:56.762Z,10.82
2022-11-06T15:01:29.995Z,10.82
2022-11-06T15:04:06.404Z,10.78
2022-11-06T15:06:45.978Z,10.79
2022-11-06T15:09:16.748Z,10.89
2022-11-06T15:12:00.877Z,10.86
2022-11-06T15:14:58.407Z,10.75
2022-11-06T15:17:31.880Z,10.70
2022-11-06T15:20:10.733Z,10.75
2022-11-06T15:22:44.280Z,10.81
2022-11-06T15:25:27.411Z,10.94
2022-11-06T15:28:04.345Z,10.80
2022-11-06T15:30:41.540Z,10.48
2022-11-06T15:33:16.193Z,10.47
2022-11-06T15:35:49.674Z,10.38
2022-11-06T15:38:21.854Z,10.22
2022-11-06T15:40:53.067Z,10.16
2022-11-06T15:43:29.083Z,10.16
2022-11-06T15:46:09.196Z,10.13
2022-11-06T15:48:38.734Z,10.12
2022-11-06T15:51:22.815Z,10.09
2022-11-06T15:53:52.221Z,10.04
2022-11-06T15:56:24.677Z,10.03
2022-11-06T15:59:13.261Z,10.01
2022-11-06T16:01:43.254Z,9.93
2022-11-06T16:04:16.788Z,9.96
2022-11-06T16:06:49.492Z,9.92
2022-11-06T16:09:21.062Z,9.89
2022-11-06T16:11:51.842Z,9.84
2022-11-06T16:14:22.263Z,9.83
2022-11-06T16:16:53.297Z,9.83
2022-11-06T16:19:32.890Z,9.81
2022-11-06T16:22:07.599Z,9.79
2022-11-06T16:24:43.045Z,9.77
2022-11-06T16:27:12.999Z,9.80
2022-11-06T16:29:42.884Z,9.75
2022-11-06T16:32:18.315Z,9.73
2022-11-06T16:34:48.749Z,9.72
2022-11-06T16:37:41.271Z,9.73
2022-11-06T16:40:49.968Z,9.75
2022-11-06T16:43:21.195Z,9.75
2022-11-06T16:45:59.402Z,9.74
2022-11-06T16:48:34.266Z,9.73
2022-11-06T16:51:05.827Z,9.69
2022-11-06T16:53:51.882Z,9.65
2022-11-06T16:56:25.816Z,9.66
2022-11-06T16:58:59.441Z,9.65
2022-11-06T17:01:30.782Z,9.63
2022-11-06T17:04:02.151Z,9.62
2022-11-06T17:06:33.779Z,9.61
2022-11-06T17:09:09.902Z,9.56
2022-11-06T17:11:39.940Z,9.52
2022-11-06T17:14:19.559Z,9.53
2022-11-06T17:16:51.343Z,9.55
2022-11-06T17:19:21.339Z,9.53
2022-11-06T17:21:51.470Z,9.52
2022-11-06T17:24:38.810Z,9.53
2022-11-06T17:27:08.495Z,9.50
2022-11-06T17:29:39.057Z,9.49
2022-11-06T17:32:08.503Z,9.49
2022-11-06T17:34:38.997Z,9.46
2022-11-06T17:37:08.679Z,9.42
2022-11-06T17:39:40.644Z,9.40
2022-11-06T17:42:10.045Z,9.39
2022-11-06T17:44:39.415Z,9.39
2022-11-06T17:47:08.879Z,9.39
2022-11-06T17:49:38.280Z,9.35
2022-11-06T17:52:08.036Z,9.34
2022-11-06T17:54:40.839Z,9.31
2022-11-06T17:57:10.807Z,9.34
2022-11-06T17:59:40.174Z,9.32
2022-11-06T18:02:09.864Z,9.32
2022-11-06T18:04:40.692Z,9.31
2022-11-06T18:07:10.215Z,9.27
2022-11-06T18:09:42.256Z,9.30
2022-11-06T18:12:13.196Z,9.26
2022-11-06T18:14:42.632Z,9.23
2022-11-06T18:17:12.253Z,9.24
2022-11-06T18:19:42.095Z,9.22
2022-11-06T18:22:11.593Z,9.20
2022-11-06T18:24:43.580Z,9.21
2022-11-06T18:27:12.963Z,9.21
2022-11-06T18:29:42.481Z,9.22
2022-11-06T18:32:11.944Z,9.23
2022-11-06T18:34:41.365Z,9.38
2022-11-06T18:37:10.866Z,9.35
2022-11-06T18:39:43.108Z,9.37
2022-11-06T18:42:12.547Z,9.30
2022-11-06T18:44:42.746Z,9.35
2022-11-06T18:47:12.243Z,9.21
2022-11-06T18:49:41.652Z,9.22
2022-11-06T18:52:11.100Z,9.20
2022-11-06T18:54:43.203Z,9.13
2022-11-06T18:57:12.657Z,9.13
2022-11-06T18:59:42.062Z,9.17
2022-11-06T19:02:11.744Z,9.11
2022-11-06T19:04:41.304Z,9.04
2022-11-06T19:07:10.782Z,9.04
2022-11-06T19:09:42.768Z,9.09
2022-11-06T19:12:12.167Z,9.07
2022-11-06T19:14:41.627Z,9.05
2022-11-06T19:17:11.057Z,9.04
2022-11-06T19:19:40.440Z,9.02
2022-11-06T19:22:10.648Z,9.00
2022-11-06T19:24:40.019Z,9.01
2022-11-06T19:27:12.087Z,9.03
2022-11-06T19:29:41.564Z,9.03
2022-11-06T19:32:11.494Z,9.03
2022-11-06T19:34:40.964Z,9.04
2022-11-06T19:37:10.366Z,9.04
2022-11-06T19:39:39.731Z,9.02
2022-11-06T19:42:11.699Z,9.05
2022-11-06T19:44:41.192Z,9.08
2022-11-06T19:47:10.645Z,9.07
2022-11-06T19:49:40.140Z,9.07
2022-11-06T19:52:42.070Z,9.05
2022-11-06T19:55:26.972Z,9.04
2022-11-06T19:57:52.026Z,9.06
2022-11-06T20:00:21.679Z,9.06
2022-11-06T20:02:52.249Z,9.07
2022-11-06T20:05:21.825Z,9.09
2022-11-06T20:07:51.295Z,9.08
2022-11-06T20:10:20.775Z,9.13
2022-11-06T20:12:52.932Z,9.12
2022-11-06T20:15:24.143Z,9.11
2022-11-06T20:17:53.859Z,9.10
2022-11-06T20:20:23.576Z,9.05
2022-11-06T20:22:52.998Z,9.08
2022-11-06T20:25:22.740Z,9.05
2022-11-06T20:27:54.809Z,9.05
2022-11-06T20:30:24.412Z,9.08
2022-11-06T20:32:53.860Z,9.08
2022-11-06T20:35:23.276Z,9.08
2022-11-06T20:37:52.804Z,9.10
2022-11-06T20:40:22.337Z,9.11
2022-11-06T20:42:54.391Z,9.11
2022-11-06T20:45:23.863Z,9.13
2022-11-06T20:47:53.503Z,9.08
2022-11-06T20:50:22.900Z,9.11
2022-11-06T20:52:52.401Z,9.08
2022-11-06T20:55:22.015Z,9.07
2022-11-06T20:57:54.107Z,9.07
2022-11-06T21:00:23.706Z,8.95
2022-11-06T21:02:58.972Z,8.93
2022-11-06T21:05:30.884Z,8.82
2022-11-06T21:08:00.345Z,8.67
2022-11-06T21:10:29.831Z,8.53
2022-11-06T21:13:01.875Z,8.47
2022-11-06T21:15:31.239Z,8.31
2022-11-06T21:18:00.663Z,8.12
2022-11-06T21:20:30.175Z,7.91
2022-11-06T21:22:59.652Z,7.87
2022-11-06T21:25:29.037Z,7.74
2022-11-06T21:28:01.031Z,7.57
2022-11-06T21:30:30.533Z,7.49
2022-11-06T21:33:00.028Z,7.43
2022-11-06T21:35:29.457Z,7.36
2022-11-06T21:37:58.831Z,7.32
2022-11-06T21:40:28.352Z,7.26
2022-11-06T21:43:00.716Z,7.24
2022-11-06T21:45:30.239Z,7.19
2022-11-06T21:47:59.724Z,7.15
2022-11-06T21:50:30.428Z,7.16
2022-11-06T21:53:12.360Z,7.15
2022-11-06T21:55:54.290Z,7.16
2022-11-06T21:58:26.371Z,7.16
2022-11-06T22:00:55.855Z,7.15
2022-11-06T22:03:25.633Z,7.17
2022-11-06T22:05:55.042Z,7.20
2022-11-06T22:08:27.149Z,7.18
2022-11-06T22:10:59.785Z,7.15
2022-11-06T22:13:31.955Z,7.10
2022-11-06T22:16:03.132Z,7.14
2022-11-06T22:18:32.616Z,7.16
2022-11-06T22:21:08.315Z,7.15
2022-11-06T22:23:38.465Z,7.20
2022-11-06T22:26:08.794Z,7.22
2022-11-06T22:28:40.834Z,7.21
2022-11-06T22:31:11.267Z,7.26
2022-11-06T22:33:40.764Z,7.27
2022-11-06T22:36:13.234Z,7.34
2022-11-06T22:38:44.229Z,7.33
2022-11-06T22:41:15.952Z,7.37
2022-11-06T22:43:48.431Z,7.45
2022-11-06T22:46:19.659Z,7.49
2022-11-06T22:48:49.708Z,7.41
2022-11-06T22:51:20.956Z,7.50
2022-11-06T22:53:50.669Z,7.52
2022-11-06T22:56:20.403Z,7.49
2022-11-06T22:58:55.665Z,7.51
2022-11-06T23:01:26.206Z,7.51
2022-11-06T23:03:57.851Z,7.51
2022-11-06T23:06:28.172Z,7.54
2022-11-06T23:08:57.698Z,7.57
2022-11-06T23:11:28.849Z,7.56
2022-11-06T23:14:07.478Z,7.53
2022-11-06T23:16:50.589Z,7.56
2022-11-06T23:19:22.281Z,7.61
2022-11-06T23:21:52.467Z,7.58
2022-11-06T23:24:21.955Z,7.57
2022-11-06T23:26:51.397Z,7.61
2022-11-06T23:29:23.408Z,7.59
2022-11-06T23:31:52.767Z,7.61
2022-11-06T23:34:22.164Z,7.61
2022-11-06T23:36:51.626Z,7.64
2022-11-06T23:39:21.041Z,7.64
2022-11-06T23:41:51.158Z,7.72
2022-11-06T23:44:35.827Z,7.68
2022-11-06T23:47:05.316Z,7.70
2022-11-06T23:49:34.681Z,7.74
2022-11-06T23:52:04.733Z,7.75
2022-11-06T23:54:34.352Z,7.79
2022-11-06T23:57:03.791Z,7.84
2022-11-06T23:59:35.759Z,7.89
